createdAt,value
2018-12-17T00:04:50.708Z,3.59
2018-12-17T00:10:04.418Z,3.76
2018-12-17T00:15:17.523Z,3.66
2018-12-17T00:20:28.515Z,3.67
2018-12-17T00:25:40.668Z,3.69
2018-12-17T00:30:51.919Z,3.70
2018-12-17T00:36:04.445Z,3.68
2018-12-17T00:41:15.416Z,3.69
2018-12-17T00:46:27.864Z,3.63
2018-12-17T00:51:39.108Z,3.59
2018-12-17T00:56:53.488Z,3.59
2018-12-17T01:02:05.430Z,3.64
2018-12-17T01:07:18.520Z,3.60
2018-12-17T01:12:30.521Z,3.60
2018-12-17T01:17:41.732Z,3.67
2018-12-17T01:22:53.668Z,3.67
2018-12-17T01:28:04.830Z,3.63
2018-12-17T01:33:17.061Z,3.66
2018-12-17T01:38:28.019Z,3.60
2018-12-17T01:43:40.016Z,3.58
2018-12-17T01:48:50.929Z,3.65
2018-12-17T01:51:20.299Z,3.62
2018-12-17T01:56:34.402Z,3.59
2018-12-17T02:01:45.653Z,3.56
2018-12-17T02:06:58.139Z,3.62
2018-12-17T02:12:10.181Z,3.69
2018-12-17T02:17:21.367Z,3.73
2018-12-17T02:22:33.559Z,3.66
2018-12-17T02:27:44.840Z,3.70
2018-12-17T02:32:57.049Z,3.73
2018-12-17T02:38:08.238Z,3.79
2018-12-17T02:43:20.225Z,3.80
2018-12-17T02:48:31.184Z,3.88
2018-12-17T02:53:43.312Z,3.87
2018-12-17T02:58:54.383Z,3.93
2018-12-17T03:04:06.531Z,4.01
2018-12-17T03:09:17.601Z,4.09
2018-12-17T03:14:29.621Z,4.12
2018-12-17T03:19:40.691Z,4.11
2018-12-17T03:24:52.665Z,4.09
2018-12-17T03:30:05.766Z,4.02
2018-12-17T03:35:18.141Z,3.99
2018-12-17T03:40:29.125Z,4.01
2018-12-17T03:45:41.115Z,4.03
2018-12-17T03:50:52.203Z,4.00
2018-12-17T03:56:04.269Z,4.00
2018-12-17T04:01:16.298Z,4.01
2018-12-17T04:03:45.700Z,3.98
2018-12-17T04:08:56.656Z,4.06
2018-12-17T04:14:09.889Z,4.01
2018-12-17T04:19:20.868Z,4.07
2018-12-17T04:24:34.780Z,4.08
2018-12-17T04:29:45.825Z,4.08
2018-12-17T04:34:57.823Z,4.02
2018-12-17T04:40:09.485Z,4.06
2018-12-17T04:45:21.562Z,4.01
2018-12-17T04:50:32.725Z,3.99
2018-12-17T04:53:02.432Z,4.04
2018-12-17T04:58:14.448Z,4.02
2018-12-17T05:03:26.820Z,4.08
2018-12-17T05:08:37.838Z,4.12
2018-12-17T05:13:49.817Z,4.17
2018-12-17T05:19:01.347Z,4.24
2018-12-17T05:24:14.348Z,4.29
2018-12-17T05:29:25.454Z,4.40
2018-12-17T05:34:37.777Z,4.45
2018-12-17T05:39:49.231Z,4.51
2018-12-17T05:44:57.951Z,4.46
2018-12-17T05:50:09.399Z,4.47
2018-12-17T05:55:23.413Z,4.50
2018-12-17T06:00:34.314Z,4.57
2018-12-17T06:05:46.523Z,4.64
2018-12-17T06:10:57.572Z,4.70
2018-12-17T06:16:09.654Z,4.71
2018-12-17T06:21:17.108Z,4.75
2018-12-17T06:26:29.216Z,4.72
2018-12-17T06:31:36.616Z,4.71
2018-12-17T06:34:06.035Z,4.71
2018-12-17T06:39:17.029Z,4.71
2018-12-17T06:44:28.947Z,4.74
2018-12-17T06:49:41.273Z,4.78
2018-12-17T06:54:56.483Z,4.76
2018-12-17T07:00:08.191Z,4.84
2018-12-17T07:05:20.449Z,4.75
2018-12-17T07:10:32.081Z,4.76
2018-12-17T07:15:44.915Z,4.86
2018-12-17T07:20:58.609Z,4.83
2018-12-17T07:26:10.914Z,4.87
2018-12-17T07:31:22.078Z,4.87
2018-12-17T07:36:34.131Z,4.86
2018-12-17T07:41:46.492Z,4.96
2018-12-17T07:46:58.613Z,5.00
2018-12-17T07:52:09.630Z,5.02
2018-12-17T07:57:20.621Z,5.07
2018-12-17T08:02:34.809Z,5.16
2018-12-17T08:07:47.949Z,5.23
2018-12-17T08:13:00.183Z,5.24
2018-12-17T08:18:23.374Z,5.27
2018-12-17T08:23:35.763Z,5.33
2018-12-17T08:28:46.898Z,5.37
2018-12-17T08:33:58.923Z,5.44
2018-12-17T08:39:10.110Z,5.48
2018-12-17T08:44:22.222Z,5.55
2018-12-17T08:49:33.328Z,5.52
2018-12-17T08:54:45.796Z,5.57
2018-12-17T08:59:57.815Z,5.59
2018-12-17T09:05:11.105Z,5.69
2018-12-17T09:10:22.117Z,5.69
2018-12-17T09:15:34.108Z,5.69
2018-12-17T09:20:45.137Z,5.72
2018-12-17T09:25:57.405Z,5.75
2018-12-17T09:31:08.437Z,5.79
2018-12-17T09:36:20.706Z,5.88
2018-12-17T09:41:32.959Z,5.83
2018-12-17T09:46:45.226Z,5.80
2018-12-17T09:51:56.465Z,5.84
2018-12-17T09:54:25.876Z,5.88
2018-12-17T09:59:36.996Z,5.91
2018-12-17T10:04:49.854Z,6.04
2018-12-17T10:10:01.376Z,6.18
2018-12-17T10:15:13.835Z,6.31
2018-12-17T10:20:25.024Z,6.37
2018-12-17T10:25:37.155Z,6.43
2018-12-17T10:30:48.235Z,6.40
2018-12-17T10:36:00.561Z,6.44
2018-12-17T10:41:13.568Z,6.51
2018-12-17T10:46:27.174Z,6.55
2018-12-17T10:51:40.148Z,6.67
2018-12-17T10:56:52.483Z,6.79
2018-12-17T11:02:15.701Z,6.99
2018-12-17T11:07:31.293Z,7.31
2018-12-17T11:12:46.665Z,7.55
2018-12-17T11:17:57.868Z,7.95
2018-12-17T11:23:11.404Z,7.92
2018-12-17T11:28:23.847Z,7.90
2018-12-17T11:33:36.543Z,7.89
2018-12-17T11:38:49.018Z,7.92
2018-12-17T11:44:01.263Z,7.87
2018-12-17T11:49:13.386Z,7.75
2018-12-17T11:54:27.321Z,7.73
2018-12-17T11:58:09.788Z,7.78
2018-12-17T12:03:23.984Z,7.72
2018-12-17T12:08:37.356Z,7.72
2018-12-17T12:13:50.519Z,7.78
2018-12-17T12:19:02.001Z,7.75
2018-12-17T12:24:15.173Z,7.73
2018-12-17T12:29:26.382Z,7.69
2018-12-17T12:34:38.803Z,7.69
2018-12-17T12:39:50.223Z,7.73
2018-12-17T12:45:03.216Z,7.69
2018-12-17T12:50:15.348Z,7.75
2018-12-17T12:55:29.108Z,7.73
2018-12-17T13:00:40.722Z,7.64
2018-12-17T13:05:53.548Z,7.55
2018-12-17T13:11:06.023Z,7.56
2018-12-17T13:16:18.736Z,7.54
2018-12-17T13:21:30.081Z,7.48
2018-12-17T13:26:42.523Z,7.45
2018-12-17T13:31:54.033Z,7.41
2018-12-17T13:37:06.663Z,7.40
2018-12-17T13:42:19.121Z,7.39
2018-12-17T13:47:30.535Z,7.41
2018-12-17T13:52:55.935Z,7.37
2018-12-17T13:58:07.441Z,7.34
2018-12-17T14:03:19.696Z,7.28
2018-12-17T14:08:30.676Z,7.39
2018-12-17T14:13:42.970Z,7.34
2018-12-17T14:19:14.126Z,7.46
2018-12-17T14:21:48.764Z,7.51
2018-12-17T14:32:43.434Z,7.60
2018-12-17T14:38:04.702Z,7.62
2018-12-17T14:40:34.175Z,7.61
2018-12-17T14:45:46.219Z,7.62
2018-12-17T14:50:57.418Z,7.63
2018-12-17T14:56:09.284Z,7.69
2018-12-17T15:01:21.253Z,7.69
2018-12-17T15:06:35.342Z,7.81
2018-12-17T15:11:49.003Z,7.94
2018-12-17T15:17:01.171Z,7.93
2018-12-17T15:22:13.960Z,7.93
2018-12-17T15:27:24.889Z,7.91
2018-12-17T15:32:37.139Z,7.92
2018-12-17T15:37:48.575Z,7.94
2018-12-17T15:43:00.713Z,7.87
2018-12-17T15:48:12.632Z,7.89
2018-12-17T15:50:41.961Z,7.89
2018-12-17T15:53:11.423Z,7.93
2018-12-17T15:58:22.846Z,7.92
2018-12-17T16:03:34.847Z,7.86
2018-12-17T16:08:45.801Z,7.94
2018-12-17T16:11:46.610Z,7.92
2018-12-17T16:14:16.046Z,7.89
2018-12-17T16:19:27.091Z,7.87
2018-12-17T16:24:39.098Z,7.89
2018-12-17T16:29:50.096Z,7.83
2018-12-17T16:35:02.211Z,7.77
2018-12-17T16:40:13.369Z,7.73
2018-12-17T16:42:42.962Z,7.72
2018-12-17T16:47:54.747Z,7.65
2018-12-17T16:53:06.676Z,7.56
2018-12-17T16:58:17.611Z,7.49
2018-12-17T17:03:29.672Z,7.46
2018-12-17T17:08:40.558Z,7.33
2018-12-17T17:11:09.977Z,7.27
2018-12-17T17:16:22.387Z,7.20
2018-12-17T17:21:34.334Z,7.02
2018-12-17T17:26:46.255Z,6.94
2018-12-17T17:31:57.253Z,6.91
2018-12-17T17:37:09.435Z,6.92
2018-12-17T17:42:27.865Z,6.82
2018-12-17T17:47:40.841Z,6.72
2018-12-17T17:50:10.376Z,6.71
2018-12-17T17:55:24.311Z,6.64
2018-12-17T18:00:36.036Z,6.66
2018-12-17T18:05:48.653Z,6.59
2018-12-17T18:11:00.119Z,6.59
2018-12-17T18:16:12.422Z,6.63
2018-12-17T18:21:23.378Z,6.63
2018-12-17T18:26:35.243Z,6.60
2018-12-17T18:31:46.303Z,6.62
2018-12-17T18:36:58.693Z,6.63
2018-12-17T18:42:09.593Z,6.62
2018-12-17T18:47:25.789Z,6.68
2018-12-17T18:52:34.728Z,6.65
2018-12-17T18:57:45.946Z,6.60
2018-12-17T19:02:58.082Z,6.45
2018-12-17T19:08:09.997Z,6.43
2018-12-17T19:13:27.277Z,6.54
2018-12-17T19:18:38.094Z,6.61
2018-12-17T19:21:07.493Z,6.62
2018-12-17T19:26:18.123Z,6.70
2018-12-17T19:31:26.185Z,6.69
2018-12-17T19:36:38.256Z,6.68
2018-12-17T19:41:51.083Z,6.68
2018-12-17T19:47:03.329Z,6.68
2018-12-17T19:52:14.327Z,6.63
2018-12-17T19:57:25.434Z,6.56
2018-12-17T20:02:37.671Z,6.64
2018-12-17T20:07:49.606Z,6.66
2018-12-17T20:13:08.748Z,6.60
2018-12-17T20:18:21.745Z,6.62
2018-12-17T20:23:33.986Z,6.63
2018-12-17T20:28:45.429Z,6.72
2018-12-17T20:33:59.765Z,6.69
2018-12-17T20:39:11.177Z,6.68
2018-12-17T20:44:23.313Z,6.68
2018-12-17T20:49:34.524Z,6.67
2018-12-17T20:52:04.090Z,6.67
2018-12-17T20:57:22.572Z,6.65
2018-12-17T21:02:34.545Z,6.56
2018-12-17T21:07:46.271Z,6.57
2018-12-17T21:10:15.781Z,6.59
2018-12-17T21:15:27.874Z,6.57
2018-12-17T21:20:38.818Z,6.55
2018-12-17T21:25:50.927Z,6.58
2018-12-17T21:31:02.041Z,6.56
2018-12-17T21:36:14.158Z,6.57
2018-12-17T21:41:25.158Z,6.51
2018-12-17T21:46:37.162Z,6.51
2018-12-17T21:51:48.160Z,6.56
2018-12-17T21:57:00.411Z,6.47
2018-12-17T22:02:11.279Z,6.48
2018-12-17T22:07:22.177Z,6.41
2018-12-17T22:12:34.070Z,6.39
2018-12-17T22:17:41.719Z,6.41
2018-12-17T22:22:54.961Z,6.37
2018-12-17T22:28:06.024Z,6.36
2018-12-17T22:33:19.930Z,6.50
2018-12-17T22:38:30.980Z,6.53
2018-12-17T22:43:42.907Z,6.49
2018-12-17T22:48:54.005Z,6.52
2018-12-17T22:54:06.075Z,6.54
2018-12-17T22:59:17.131Z,6.51
2018-12-17T23:04:28.975Z,6.57
2018-12-17T23:09:57.125Z,6.56
2018-12-17T23:12:43.347Z,6.61
2018-12-17T23:18:09.846Z,6.63
2018-12-17T23:23:23.198Z,6.65
2018-12-17T23:28:35.106Z,6.64
2018-12-17T23:33:47.372Z,6.67
2018-12-17T23:38:58.345Z,6.66
2018-12-17T23:44:10.437Z,6.69
2018-12-17T23:49:21.294Z,6.59
2018-12-17T23:54:33.469Z,6.61
2018-12-17T23:59:44.512Z,6.56
